Time;durP1;ratioP1;P1;durP2;ratioP2;P2;SDS_P1;SDS_P2;PMS_P1;PMS_P2;Temp;Humidity;BMP_temperature;BMP_pressure;BME280_temperature;BME280_humidity;BME280_pressure;Samples;Min_cycle;Max_cycle;Signal;HPM_P1;HPM_P2
2023/11/15 00:00:38;;;;;;;;;;;;;;;13.41;56.23;99215.03;4979640;27;97995;-64
2023/11/15 00:03:06;;;;;;;;;;;;;;;13.42;56.55;99213.94;4983228;27;98717;-67
2023/11/15 00:05:32;;;;;;;;;;;;;;;13.42;56.50;99200.38;4982204;27;98263;-67
2023/11/15 00:07:59;;;;;;;;;;;;;;;13.41;56.48;99209.63;4963120;27;98863;-68
2023/11/15 00:10:26;;;;;;;;;;;;;;;13.41;56.63;99212.34;4967480;27;99701;-68
2023/11/15 00:12:51;;;;;;;;;;;;;;;13.42;56.30;99203.09;4968574;27;113921;-63
2023/11/15 00:15:18;;;;;;;;;;;;;;;13.40;56.58;99198.00;4979541;27;110812;-68
2023/11/15 00:17:44;;;;;;;;;;;;;;;13.40;56.09;99211.53;4968890;27;110342;-68
2023/11/15 00:20:13;;;;;;;;;;;;;;;13.41;56.27;99213.13;4979789;27;99387;-68
2023/11/15 00:22:42;;;;;;;;;;;;;;;13.41;56.56;99209.63;4982067;27;99768;-63
2023/11/15 00:25:08;;;;;;;;;;;;;;;13.39;56.33;99204.50;4970323;27;99944;-68
2023/11/15 00:27:34;;;;;;;;;;;;;;;13.39;56.20;99204.50;4980930;27;98352;-68
2023/11/15 00:30:01;;;;;;;;;;;;;;;13.39;56.19;99209.94;4971577;27;98576;-63
2023/11/15 00:32:27;;;;;;;;;;;;;;;13.39;56.54;99211.84;4962925;27;99774;-63
2023/11/15 00:34:53;;;;;;;;;;;;;;;13.39;56.32;99209.13;4982608;27;98561;-63
2023/11/15 00:37:19;;;;;;;;;;;;;;;13.38;56.51;99207.56;4962394;27;124009;-63
2023/11/15 00:39:45;;;;;;;;;;;;;;;13.39;56.54;99219.97;4960903;27;98824;-64
2023/11/15 00:42:12;;;;;;;;;;;;;;;13.38;56.52;99219.16;4969097;27;98403;-64
2023/11/15 00:44:38;;;;;;;;;;;;;;;13.38;56.60;99221.88;4966256;27;98359;-68
2023/11/15 00:47:05;;;;;;;;;;;;;;;13.37;56.49;99219.50;4962726;27;99753;-67
2023/11/15 00:49:34;;;;;;;;;;;;;;;13.36;56.20;99224.13;4963041;27;98235;-63
2023/11/15 00:52:00;;;;;;;;;;;;;;;13.37;56.35;99230.31;4968280;27;98229;-63
2023/11/15 00:54:26;;;;;;;;;;;;;;;13.36;56.27;99221.41;4971304;27;98132;-69
2023/11/15 00:56:55;;;;;;;;;;;;;;;13.35;56.62;99233.31;4966047;27;99401;-67
2023/11/15 00:59:22;;;;;;;;;;;;;;;13.35;56.22;99236.03;4962281;27;99527;-69
2023/11/15 01:01:57;;;;;;;;;;;;;;;13.35;56.18;99232.53;4970026;27;98458;-67
2023/11/15 01:04:25;;;;;;;;;;;;;;;13.35;56.44;99237.94;4971279;27;99165;-64
2023/11/15 01:06:51;;;;;;;;;;;;;;;13.34;56.23;99244.47;4983040;27;98294;-63
2023/11/15 01:09:17;;;;;;;;;;;;;;;13.34;56.41;99239.84;4957505;27;98008;-68
2023/11/15 01:11:44;;;;;;;;;;;;;;;13.35;56.62;99237.94;4968380;27;118678;-63
2023/11/15 01:14:11;;;;;;;;;;;;;;;13.34;56.50;99242.56;4964122;27;98315;-63
2023/11/15 01:16:37;;;;;;;;;;;;;;;13.33;56.55;99246.38;4967223;27;98150;-63
2023/11/15 01:19:03;;;;;;;;;;;;;;;13.34;56.55;99244.47;4993989;27;98917;-68
2023/11/15 01:21:29;;;;;;;;;;;;;;;13.33;56.33;99246.38;4983522;27;99069;-67
2023/11/15 01:23:55;;;;;;;;;;;;;;;13.33;56.60;99243.69;4981553;27;97919;-64
2023/11/15 01:26:21;;;;;;;;;;;;;;;13.33;56.20;99251.00;4968544;27;99838;-64
2023/11/15 01:28:48;;;;;;;;;;;;;;;13.33;56.54;99249.09;4968150;27;98593;-63
2023/11/15 01:31:14;;;;;;;;;;;;;;;13.32;56.49;99257.50;4987212;27;99838;-64
2023/11/15 01:33:43;;;;;;;;;;;;;;;13.30;56.26;99263.25;4967312;27;111529;-68
2023/11/15 01:36:09;;;;;;;;;;;;;;;13.31;56.46;99270.25;4984823;27;99331;-68
2023/11/15 01:38:37;;;;;;;;;;;;;;;13.31;56.34;99261.34;4965524;27;124614;-67
2023/11/15 01:41:05;;;;;;;;;;;;;;;13.31;56.66;99266.75;4979723;27;98689;-68
2023/11/15 01:43:32;;;;;;;;;;;;;;;13.31;56.43;99270.25;4965316;27;98076;-63
2023/11/15 01:45:59;;;;;;;;;;;;;;;13.30;56.60;99268.66;4987293;27;99472;-68
2023/11/15 01:48:25;;;;;;;;;;;;;;;13.31;56.55;99272.16;4964562;27;99495;-68
2023/11/15 01:50:52;;;;;;;;;;;;;;;13.31;56.56;99272.97;4975309;27;97912;-68
2023/11/15 01:53:18;;;;;;;;;;;;;;;13.30;56.63;99273.28;4982051;27;98125;-64
2023/11/15 01:55:45;;;;;;;;;;;;;;;13.30;56.53;99281.41;4971522;27;104156;-63
2023/11/15 01:58:11;;;;;;;;;;;;;;;13.30;56.28;99281.41;4976021;27;99891;-63
2023/11/15 02:00:38;;;;;;;;;;;;;;;13.31;56.66;99285.69;4969273;27;111606;-63
2023/11/15 02:03:04;;;;;;;;;;;;;;;13.31;56.29;99288.41;4979282;27;98734;-63
2023/11/15 02:05:30;;;;;;;;;;;;;;;13.31;56.34;99291.09;4970038;27;99275;-68
2023/11/15 02:07:55;;;;;;;;;;;;;;;13.30;56.67;99293.03;4980332;27;128233;-64
2023/11/15 02:10:22;;;;;;;;;;;;;;;13.31;56.23;99308.13;4982686;27;126662;-68
2023/11/15 02:12:48;;;;;;;;;;;;;;;13.31;56.57;99313.56;4974738;27;98268;-67
2023/11/15 02:15:17;;;;;;;;;;;;;;;13.30;56.28;99314.66;4994001;27;98327;-63
2023/11/15 02:17:48;;;;;;;;;;;;;;;13.30;56.48;99314.66;4967116;27;99234;-63
2023/11/15 02:20:15;;;;;;;;;;;;;;;13.30;56.58;99317.38;4970780;27;99222;-63
2023/11/15 02:22:49;;;;;;;;;;;;;;;13.31;56.59;99321.66;4968732;27;98541;-64
2023/11/15 02:25:15;;;;;;;;;;;;;;;13.31;56.22;99326.28;4970949;27;98225;-68
2023/11/15 02:27:41;;;;;;;;;;;;;;;13.30;56.58;99333.63;4968424;27;100089;-68
2023/11/15 02:30:08;;;;;;;;;;;;;;;13.31;56.22;99334.41;4980144;27;99638;-68
2023/11/15 02:32:39;;;;;;;;;;;;;;;13.30;56.48;99340.94;4977772;27;99788;-64
2023/11/15 02:35:07;;;;;;;;;;;;;;;13.31;56.24;99345.22;4966087;27;99696;-63
2023/11/15 02:37:34;;;;;;;;;;;;;;;13.31;56.35;99350.66;4970181;27;98064;-64
2023/11/15 02:40:04;;;;;;;;;;;;;;;13.30;56.33;99352.56;4996093;27;98286;-68
2023/11/15 02:42:32;;;;;;;;;;;;;;;13.30;56.56;99355.25;4983790;27;98050;-68
2023/11/15 02:44:58;;;;;;;;;;;;;;;13.29;56.36;99361.78;4987492;27;98627;-68
2023/11/15 02:47:25;;;;;;;;;;;;;;;13.27;56.68;99367.50;4985593;27;99464;-64
2023/11/15 02:49:52;;;;;;;;;;;;;;;13.29;56.33;99371.81;4982437;27;98190;-68
2023/11/15 02:52:18;;;;;;;;;;;;;;;13.29;56.65;99379.94;4988473;27;99489;-68
2023/11/15 02:54:44;;;;;;;;;;;;;;;13.30;56.68;99389.66;4977138;27;119247;-68
2023/11/15 02:57:11;;;;;;;;;;;;;;;13.27;56.53;99383.72;4967163;27;104064;-68
2023/11/15 02:59:37;;;;;;;;;;;;;;;13.28;56.50;99392.66;4975286;27;99105;-63
2023/11/15 03:02:03;;;;;;;;;;;;;;;13.26;56.35;99395.69;4973178;27;99141;-68
2023/11/15 03:04:29;;;;;;;;;;;;;;;13.27;56.67;99396.47;4971544;27;100455;-63
2023/11/15 03:06:55;;;;;;;;;;;;;;;13.28;56.43;99408.88;4970613;27;110354;-64
2023/11/15 03:09:22;;;;;;;;;;;;;;;13.28;56.37;99417.00;4971566;27;98117;-68
2023/11/15 03:11:48;;;;;;;;;;;;;;;13.27;56.61;99418.91;4973136;27;99233;-66
2023/11/15 03:14:14;;;;;;;;;;;;;;;13.26;56.30;99427.34;4967182;27;98453;-63
2023/11/15 03:16:40;;;;;;;;;;;;;;;13.27;56.70;99428.94;4979238;27;98638;-68
2023/11/15 03:19:07;;;;;;;;;;;;;;;13.26;56.61;99428.16;4965143;27;98936;-68
2023/11/15 03:21:32;;;;;;;;;;;;;;;13.27;56.62;99428.94;4968934;27;98391;-68
2023/11/15 03:23:59;;;;;;;;;;;;;;;13.25;56.55;99434.69;4981505;27;98447;-68
2023/11/15 03:26:24;;;;;;;;;;;;;;;13.26;56.37;99446.28;5001657;27;100013;-68
2023/11/15 03:28:51;;;;;;;;;;;;;;;13.25;56.37;99450.13;4970129;27;112637;-68
2023/11/15 03:31:17;;;;;;;;;;;;;;;13.24;56.70;99452.03;4964369;27;98349;-69
2023/11/15 03:33:43;;;;;;;;;;;;;;;13.23;56.35;99461.22;4970305;27;105636;-68
2023/11/15 03:36:09;;;;;;;;;;;;;;;13.25;56.32;99463.66;4964508;27;98301;-68
2023/11/15 03:38:36;;;;;;;;;;;;;;;13.25;56.29;99463.66;4992588;27;107268;-63
2023/11/15 03:41:02;;;;;;;;;;;;;;;13.24;56.67;99470.97;4970249;27;97889;-64
2023/11/15 03:43:28;;;;;;;;;;;;;;;13.24;56.65;99473.69;4969069;27;124533;-63
2023/11/15 03:45:54;;;;;;;;;;;;;;;13.23;56.43;99477.47;4983247;27;127660;-64
2023/11/15 03:48:21;;;;;;;;;;;;;;;13.24;56.25;99478.25;4981045;27;98601;-63
2023/11/15 03:50:47;;;;;;;;;;;;;;;13.24;56.77;99486.38;4968709;27;97971;-63
2023/11/15 03:53:13;;;;;;;;;;;;;;;13.24;56.63;99487.22;4958142;27;97967;-67
2023/11/15 03:55:39;;;;;;;;;;;;;;;13.23;56.69;99496.41;4989999;27;103353;-68
2023/11/15 03:58:05;;;;;;;;;;;;;;;13.23;56.70;99499.13;4986932;27;98569;-68
2023/11/15 04:00:31;;;;;;;;;;;;;;;13.23;56.34;99509.16;4981275;27;98002;-67
2023/11/15 04:02:57;;;;;;;;;;;;;;;13.22;56.67;99504.81;4971367;27;98327;-68
2023/11/15 04:05:23;;;;;;;;;;;;;;;13.23;56.39;99528.09;4966884;27;100284;-68
2023/11/15 04:07:49;;;;;;;;;;;;;;;13.22;56.49;99524.56;4969415;27;98324;-68
2023/11/15 04:10:15;;;;;;;;;;;;;;;13.23;56.47;99533.50;4966102;27;108329;-63
2023/11/15 04:12:42;;;;;;;;;;;;;;;13.22;56.59;99537.28;4975289;27;98209;-67
2023/11/15 04:15:09;;;;;;;;;;;;;;;13.21;56.64;99543.81;4969576;27;98225;-63
2023/11/15 04:17:35;;;;;;;;;;;;;;;13.21;56.66;99541.91;4969222;27;98141;-68
2023/11/15 04:20:01;;;;;;;;;;;;;;;13.22;56.33;99550.81;4985130;27;99733;-63
2023/11/15 04:22:27;;;;;;;;;;;;;;;13.20;56.63;99545.72;4968350;27;99674;-63
2023/11/15 04:24:53;;;;;;;;;;;;;;;13.21;56.40;99551.94;4983274;27;99102;-63
2023/11/15 04:27:19;;;;;;;;;;;;;;;13.20;56.51;99551.13;4965622;27;129220;-68
2023/11/15 04:29:46;;;;;;;;;;;;;;;13.20;56.45;99559.25;4970312;27;98612;-68
2023/11/15 04:32:12;;;;;;;;;;;;;;;13.21;56.63;99568.19;4995481;27;99557;-68
2023/11/15 04:34:38;;;;;;;;;;;;;;;13.20;56.36;99561.13;4968715;27;98132;-67
2023/11/15 04:37:04;;;;;;;;;;;;;;;13.19;56.27;99564.97;4991777;27;113958;-67
2023/11/15 04:39:30;;;;;;;;;;;;;;;13.19;56.61;99568.47;4979333;27;99136;-63
2023/11/15 04:41:56;;;;;;;;;;;;;;;13.20;56.68;99571.97;4970224;27;101389;-63
2023/11/15 04:44:23;;;;;;;;;;;;;;;13.20;56.46;99575.50;4980684;27;99091;-63
2023/11/15 04:46:50;;;;;;;;;;;;;;;13.19;56.69;99576.56;4967016;27;99306;-63
2023/11/15 04:49:18;;;;;;;;;;;;;;;13.19;56.65;99584.69;4962553;27;99132;-63
2023/11/15 04:51:44;;;;;;;;;;;;;;;13.19;56.72;99592.03;4968326;27;101094;-68
2023/11/15 04:54:10;;;;;;;;;;;;;;;13.19;56.76;99590.09;4982510;27;98306;-63
2023/11/15 04:56:36;;;;;;;;;;;;;;;13.18;56.40;99602.03;4981510;27;98082;-64
2023/11/15 04:59:02;;;;;;;;;;;;;;;13.18;56.42;99604.75;4969528;27;99223;-63
2023/11/15 05:01:31;;;;;;;;;;;;;;;13.17;56.78;99597.75;4968810;27;100728;-68
2023/11/15 05:03:57;;;;;;;;;;;;;;;13.17;56.31;99611.28;4991939;27;97984;-68
2023/11/15 05:06:23;;;;;;;;;;;;;;;13.17;56.77;99613.19;4979549;27;98225;-64
2023/11/15 05:08:50;;;;;;;;;;;;;;;13.17;56.39;99622.09;4963753;27;98245;-64
2023/11/15 05:11:15;;;;;;;;;;;;;;;13.17;56.31;99632.13;4963199;27;119749;-64
2023/11/15 05:13:41;;;;;;;;;;;;;;;13.16;56.49;99633.22;4964506;27;127234;-68
2023/11/15 05:16:07;;;;;;;;;;;;;;;13.16;56.77;99639.41;4960438;27;124996;-63
2023/11/15 05:18:33;;;;;;;;;;;;;;;13.17;56.36;99640.25;4990075;27;98006;-63
2023/11/15 05:20:59;;;;;;;;;;;;;;;13.16;56.77;99635.91;4969231;27;105689;-63
2023/11/15 05:23:25;;;;;;;;;;;;;;;13.15;56.73;99648.66;4983497;27;120917;-63
2023/11/15 05:25:52;;;;;;;;;;;;;;;13.16;56.49;99652.16;4966971;27;99533;-68
2023/11/15 05:28:20;;;;;;;;;;;;;;;13.15;56.50;99659.47;4984560;27;98258;-68
2023/11/15 05:30:47;;;;;;;;;;;;;;;13.14;56.70;99655.16;4974280;27;98358;-63
2023/11/15 05:33:14;;;;;;;;;;;;;;;13.15;56.46;99658.69;4984361;27;100307;-68
2023/11/15 05:35:40;;;;;;;;;;;;;;;13.15;56.52;99672.19;4971716;27;106337;-68
2023/11/15 05:38:07;;;;;;;;;;;;;;;13.16;56.85;99668.38;4982383;27;98198;-64
2023/11/15 05:40:34;;;;;;;;;;;;;;;13.15;56.38;99670.28;4964911;27;100166;-63
2023/11/15 05:43:00;;;;;;;;;;;;;;;13.14;56.59;99667.91;4958666;27;99583;-68
2023/11/15 05:45:26;;;;;;;;;;;;;;;13.15;56.70;99681.13;4958848;27;98018;-63
2023/11/15 05:47:52;;;;;;;;;;;;;;;13.13;56.74;99686.03;4959637;27;98143;-64
2023/11/15 05:50:19;;;;;;;;;;;;;;;13.14;56.43;99686.84;4976757;27;98280;-63
2023/11/15 05:52:45;;;;;;;;;;;;;;;13.13;56.35;99691.47;4983072;27;99891;-68
2023/11/15 05:55:11;;;;;;;;;;;;;;;13.14;56.56;99708.50;4991758;27;98075;-68
2023/11/15 05:57:37;;;;;;;;;;;;;;;13.13;56.67;99701.47;4964152;27;98170;-64
2023/11/15 06:00:18;;;;;;;;;;;;;;;13.13;56.21;99706.91;4960523;27;104459;-68
2023/11/15 06:02:46;;;;;;;;;;;;;;;13.12;56.61;99710.69;4977674;27;98303;-64
2023/11/15 06:05:12;;;;;;;;;;;;;;;13.11;56.49;99714.50;4980608;27;98024;-63
2023/11/15 06:07:38;;;;;;;;;;;;;;;13.10;56.47;99719.13;4966669;27;98347;-64
2023/11/15 06:10:04;;;;;;;;;;;;;;;13.11;56.38;99726.13;4963520;27;98983;-68
2023/11/15 06:12:31;;;;;;;;;;;;;;;13.10;56.52;99732.66;4987311;27;98292;-68
2023/11/15 06:14:57;;;;;;;;;;;;;;;13.10;56.66;99734.56;4985543;27;98985;-63
2023/11/15 06:17:28;;;;;;;;;;;;;;;13.09;56.60;99738.38;4981772;27;100125;-64
2023/11/15 06:19:55;;;;;;;;;;;;;;;13.09;56.77;99743.78;4968941;27;99748;-64
2023/11/15 06:22:23;;;;;;;;;;;;;;;13.09;56.67;99750.00;4974389;27;98637;-63
2023/11/15 06:24:52;;;;;;;;;;;;;;;13.08;56.37;99756.47;5007706;27;98000;-63
2023/11/15 06:27:19;;;;;;;;;;;;;;;13.09;56.78;99765.41;4967977;27;98585;-64
2023/11/15 06:29:48;;;;;;;;;;;;;;;13.08;56.70;99770.00;4964593;27;98610;-63
2023/11/15 06:32:15;;;;;;;;;;;;;;;13.08;56.63;99770.00;4971402;27;100389;-68
2023/11/15 06:34:44;;;;;;;;;;;;;;;13.09;56.78;99789.78;4983128;27;98609;-68
2023/11/15 06:37:12;;;;;;;;;;;;;;;13.09;56.55;99782.44;4967253;27;98960;-68
2023/11/15 06:39:40;;;;;;;;;;;;;;;13.09;56.74;99792.47;4965099;27;99726;-68
2023/11/15 06:42:06;;;;;;;;;;;;;;;13.09;56.57;99787.88;4981560;27;98241;-64
2023/11/15 06:44:31;;;;;;;;;;;;;;;13.10;56.43;99800.28;4963021;27;107360;-68
2023/11/15 06:46:59;;;;;;;;;;;;;;;13.11;56.68;99801.88;4975470;27;116381;-63
2023/11/15 06:49:25;;;;;;;;;;;;;;;13.12;56.31;99811.59;4964984;27;98190;-69
2023/11/15 06:51:51;;;;;;;;;;;;;;;13.13;56.62;99807.00;4966757;27;98742;-69
2023/11/15 06:54:18;;;;;;;;;;;;;;;13.14;56.52;99811.31;4963347;27;98446;-66
2023/11/15 06:56:44;;;;;;;;;;;;;;;13.14;56.63;99801.28;4968952;27;98006;-64
2023/11/15 06:59:12;;;;;;;;;;;;;;;13.16;56.47;99809.09;4980646;27;98213;-64
2023/11/15 07:01:38;;;;;;;;;;;;;;;13.16;56.64;99823.41;4978059;27;99360;-69
2023/11/15 07:04:04;;;;;;;;;;;;;;;13.17;56.67;99827.75;4960201;27;111818;-69
2023/11/15 07:06:30;;;;;;;;;;;;;;;13.18;56.24;99826.66;4976537;27;98220;-64
2023/11/15 07:08:56;;;;;;;;;;;;;;;13.20;56.57;99829.88;4964476;27;112013;-64
2023/11/15 07:11:22;;;;;;;;;;;;;;;13.24;56.25;99838.19;4963249;27;99753;-69
2023/11/15 07:13:48;;;;;;;;;;;;;;;13.30;56.26;99842.41;4965012;27;124991;-64
2023/11/15 07:16:14;;;;;;;;;;;;;;;13.36;56.47;99853.94;4959958;27;106931;-64
2023/11/15 07:18:40;;;;;;;;;;;;;;;13.42;56.13;99858.16;4960468;27;99804;-64
2023/11/15 07:21:07;;;;;;;;;;;;;;;13.44;56.12;99866.78;4955769;27;108985;-64
2023/11/15 07:23:34;;;;;;;;;;;;;;;13.45;56.12;99866.50;4980007;27;98165;-64
2023/11/15 07:25:59;;;;;;;;;;;;;;;13.48;56.25;99876.72;4976548;27;97948;-64
2023/11/15 07:28:25;;;;;;;;;;;;;;;13.55;55.97;99873.59;4962961;27;98496;-69
2023/11/15 07:30:55;;;;;;;;;;;;;;;13.62;55.93;99881.31;4960867;27;129106;-64
2023/11/15 07:33:22;;;;;;;;;;;;;;;13.66;56.21;99888.53;4965354;27;98142;-69
2023/11/15 07:35:48;;;;;;;;;;;;;;;13.68;56.31;99894.47;4987492;27;110354;-64
2023/11/15 07:38:14;;;;;;;;;;;;;;;13.72;55.95;99892.75;4964185;27;98015;-69
2023/11/15 07:40:41;;;;;;;;;;;;;;;13.78;55.97;99906.19;4970660;27;99517;-69
2023/11/15 07:43:08;;;;;;;;;;;;;;;13.82;55.74;99905.28;4965034;27;98165;-65
2023/11/15 07:45:35;;;;;;;;;;;;;;;13.84;56.19;99907.72;4967875;27;100678;-64
2023/11/15 07:48:05;;;;;;;;;;;;;;;13.88;56.26;99911.41;4961918;27;98336;-69
2023/11/15 07:50:35;;;;;;;;;;;;;;;13.92;56.03;99913.22;4963350;27;99287;-64
2023/11/15 07:53:02;;;;;;;;;;;;;;;14.00;56.02;99912.50;4977533;27;98375;-64
2023/11/15 07:55:29;;;;;;;;;;;;;;;14.11;55.66;99921.22;4960671;27;98307;-68
2023/11/15 07:57:56;;;;;;;;;;;;;;;14.43;55.24;99922.16;4967934;27;97924;-69
2023/11/15 08:00:23;;;;;;;;;;;;;;;14.68;55.03;99924.28;4976671;27;99564;-64
2023/11/15 08:02:54;;;;;;;;;;;;;;;15.06;54.59;99931.28;4973162;27;101964;-69
2023/11/15 08:05:21;;;;;;;;;;;;;;;15.42;54.34;99942.81;4981081;27;98093;-64
2023/11/15 08:07:49;;;;;;;;;;;;;;;15.34;54.74;99943.56;4980334;27;100207;-66
2023/11/15 08:10:16;;;;;;;;;;;;;;;15.34;54.88;99948.22;4951988;27;99945;-65
2023/11/15 08:12:49;;;;;;;;;;;;;;;15.54;54.58;99952.28;4980474;27;98291;-64
2023/11/15 08:15:16;;;;;;;;;;;;;;;15.79;54.48;99970.63;4981648;27;98785;-69
2023/11/15 08:17:44;;;;;;;;;;;;;;;15.99;54.51;99977.44;4962884;27;98178;-64
2023/11/15 08:20:10;;;;;;;;;;;;;;;16.56;53.77;99974.69;4979017;27;98763;-66
2023/11/15 08:22:40;;;;;;;;;;;;;;;16.81;53.89;99992.16;4966299;27;99437;-64
2023/11/15 08:25:09;;;;;;;;;;;;;;;17.21;53.63;99991.97;4981978;27;98524;-64
2023/11/15 08:27:35;;;;;;;;;;;;;;;17.52;53.63;99997.19;4976995;27;98388;-64
2023/11/15 08:30:05;;;;;;;;;;;;;;;17.64;54.04;99996.50;4966238;27;98633;-64
2023/11/15 08:32:33;;;;;;;;;;;;;;;17.81;53.71;100004.69;4980219;27;98330;-69
2023/11/15 08:34:59;;;;;;;;;;;;;;;18.35;53.25;100013.09;4979160;27;98245;-64
2023/11/15 08:37:26;;;;;;;;;;;;;;;19.18;52.40;100016.16;4983314;27;98413;-69
2023/11/15 08:39:53;;;;;;;;;;;;;;;19.74;52.33;100019.34;4963748;27;98450;-65
2023/11/15 08:42:21;;;;;;;;;;;;;;;20.82;51.57;100011.41;4960832;27;99884;-65
2023/11/15 08:44:48;;;;;;;;;;;;;;;21.38;51.56;100026.28;4965698;27;98146;-69
2023/11/15 08:47:15;;;;;;;;;;;;;;;20.96;52.60;100043.91;4962988;27;100512;-69
2023/11/15 08:49:42;;;;;;;;;;;;;;;20.88;52.81;100044.84;4977955;27;98273;-65
2023/11/15 08:52:09;;;;;;;;;;;;;;;20.56;53.35;100055.63;4964023;27;99354;-65
2023/11/15 08:54:37;;;;;;;;;;;;;;;20.83;52.88;100047.84;4962582;27;98572;-65
2023/11/15 08:57:04;;;;;;;;;;;;;;;20.92;52.86;100055.91;4964707;27;98391;-69
2023/11/15 08:59:34;;;;;;;;;;;;;;;20.72;53.33;100058.47;4966352;27;98289;-66
2023/11/15 09:02:02;;;;;;;;;;;;;;;20.59;53.46;100054.94;4975364;27;98208;-69
2023/11/15 09:04:28;;;;;;;;;;;;;;;20.43;53.78;100066.88;4966225;27;98226;-65
2023/11/15 09:06:55;;;;;;;;;;;;;;;20.36;53.75;100067.47;4982640;27;98826;-65
2023/11/15 09:09:24;;;;;;;;;;;;;;;20.77;53.27;100063.69;4983109;27;99686;-65
2023/11/15 09:11:56;;;;;;;;;;;;;;;20.55;53.77;100065.00;4965650;27;98145;-69
2023/11/15 09:14:23;;;;;;;;;;;;;;;21.13;53.02;100063.94;4962288;27;99079;-65
2023/11/15 09:16:54;;;;;;;;;;;;;;;21.18;53.09;100060.94;4990371;27;98865;-69
2023/11/15 09:19:20;;;;;;;;;;;;;;;21.59;52.71;100078.19;4967758;27;98212;-64
2023/11/15 09:21:50;;;;;;;;;;;;;;;22.23;51.83;100077.91;4978771;27;99741;-65
2023/11/15 09:24:21;;;;;;;;;;;;;;;22.27;52.09;100084.28;4962718;27;98088;-62
2023/11/15 09:26:48;;;;;;;;;;;;;;;23.91;49.90;100081.47;4963970;27;98435;-67
2023/11/15 09:29:15;;;;;;;;;;;;;;;24.38;49.59;100085.00;4976110;27;100099;-62
2023/11/15 09:31:43;;;;;;;;;;;;;;;23.77;51.24;100100.47;4963375;27;98293;-63
2023/11/15 09:34:11;;;;;;;;;;;;;;;23.52;51.55;100106.28;4967628;27;98708;-68
2023/11/15 09:36:37;;;;;;;;;;;;;;;23.39;52.18;100099.34;4965097;27;98358;-64
2023/11/15 09:39:09;;;;;;;;;;;;;;;23.15;52.27;100096.88;4977710;27;100645;-68
2023/11/15 09:41:36;;;;;;;;;;;;;;;22.76;52.75;100116.03;4980719;27;98575;-63
2023/11/15 09:44:09;;;;;;;;;;;;;;;22.44;53.14;100096.03;4994859;27;98606;-68
2023/11/15 09:46:36;;;;;;;;;;;;;;;22.19;53.54;100115.44;4967427;27;98421;-64
2023/11/15 09:49:05;;;;;;;;;;;;;;;21.95;53.62;100121.06;4961414;27;98316;-64
2023/11/15 09:51:34;;;;;;;;;;;;;;;21.77;53.95;100115.09;4977650;27;98271;-68
2023/11/15 09:54:06;;;;;;;;;;;;;;;21.59;53.74;100117.38;4963243;27;98575;-64
2023/11/15 09:56:34;;;;;;;;;;;;;;;21.38;53.96;100116.75;4964410;27;98264;-64
2023/11/15 09:59:00;;;;;;;;;;;;;;;21.19;54.29;100126.38;4966956;27;97938;-64
2023/11/15 10:01:29;;;;;;;;;;;;;;;20.99;54.31;100119.94;4978481;27;98404;-68
2023/11/15 10:03:55;;;;;;;;;;;;;;;20.87;54.18;100125.44;4986294;27;98139;-68
2023/11/15 10:06:24;;;;;;;;;;;;;;;20.68;54.46;100128.75;4966709;27;98852;-68
2023/11/15 10:08:52;;;;;;;;;;;;;;;20.52;54.57;100125.09;4984962;27;98137;-67
2023/11/15 10:11:19;;;;;;;;;;;;;;;20.24;54.84;100125.75;4964748;27;98066;-68
2023/11/15 10:13:45;;;;;;;;;;;;;;;20.02;55.02;100132.41;4979922;27;98317;-67
2023/11/15 10:16:30;;;;;;;;;;;;;;;19.80;55.25;100128.13;4967979;27;99399;-63
2023/11/15 10:18:58;;;;;;;;;;;;;;;19.72;55.11;100131.75;4981761;27;98540;-63
2023/11/15 10:21:24;;;;;;;;;;;;;;;19.60;55.16;100139.88;4980167;27;98315;-63
2023/11/15 10:23:58;;;;;;;;;;;;;;;19.43;55.15;100140.84;4980773;27;98648;-68
2023/11/15 10:26:38;;;;;;;;;;;;;;;19.27;55.41;100132.44;4980743;27;100864;-63
2023/11/15 10:29:12;;;;;;;;;;;;;;;19.15;55.32;100140.56;4985239;27;98908;-68
2023/11/15 10:31:51;;;;;;;;;;;;;;;18.98;55.44;100135.22;4970333;27;98138;-64
2023/11/15 10:34:19;;;;;;;;;;;;;;;18.88;55.32;100150.84;4980278;27;98503;-68
2023/11/15 10:37:10;;;;;;;;;;;;;;;18.78;55.28;100156.69;4991579;27;99513;-64
2023/11/15 10:39:46;;;;;;;;;;;;;;;18.67;55.33;100158.19;4983445;27;99631;-64
2023/11/15 10:42:13;;;;;;;;;;;;;;;18.39;55.73;100149.63;4981914;27;98550;-63
2023/11/15 10:44:41;;;;;;;;;;;;;;;18.47;55.52;100159.72;4969562;27;98336;-68
2023/11/15 10:47:08;;;;;;;;;;;;;;;18.28;55.48;100171.03;4963546;27;98121;-64
2023/11/15 10:49:54;;;;;;;;;;;;;;;18.26;55.54;100167.00;4967575;27;98665;-64
2023/11/15 10:52:21;;;;;;;;;;;;;;;18.17;55.56;100171.69;4979000;27;98511;-68
2023/11/15 10:54:49;;;;;;;;;;;;;;;18.16;55.46;100170.91;4955612;27;98339;-68
2023/11/15 10:57:17;;;;;;;;;;;;;;;18.11;55.46;100182.75;4961107;27;99249;-68
2023/11/15 10:59:47;;;;;;;;;;;;;;;18.12;55.26;100175.41;4955327;27;98441;-68
2023/11/15 11:02:14;;;;;;;;;;;;;;;18.21;55.05;100192.53;4968570;27;99356;-63
2023/11/15 11:04:41;;;;;;;;;;;;;;;18.28;54.90;100189.31;4959522;27;99114;-64
2023/11/15 11:07:19;;;;;;;;;;;;;;;18.20;55.03;100190.16;4964908;27;98234;-64
2023/11/15 11:09:53;;;;;;;;;;;;;;;18.04;55.30;100200.75;4982835;27;99295;-68
2023/11/15 11:12:22;;;;;;;;;;;;;;;17.99;55.04;100201.72;4979415;27;99535;-68
2023/11/15 11:15:12;;;;;;;;;;;;;;;17.92;55.05;100201.41;4967067;27;98694;-68
2023/11/15 11:17:42;;;;;;;;;;;;;;;17.77;55.17;100199.19;4971833;27;100000;-64
2023/11/15 11:20:24;;;;;;;;;;;;;;;17.78;55.22;100203.50;4971135;27;98354;-68
2023/11/15 11:23:22;;;;;;;;;;;;;;;17.74;55.18;100199.78;4962983;27;98265;-64
2023/11/15 11:25:52;;;;;;;;;;;;;;;17.60;55.38;100206.19;4980866;27;97896;-64
2023/11/15 11:28:20;;;;;;;;;;;;;;;17.65;55.17;100207.97;4956455;27;98670;-68
2023/11/15 11:31:06;;;;;;;;;;;;;;;17.69;54.87;100194.50;4965563;27;98303;-68
2023/11/15 11:33:32;;;;;;;;;;;;;;;17.74;54.89;100208.78;4988740;27;98304;-64
2023/11/15 11:36:00;;;;;;;;;;;;;;;17.83;54.75;100204.13;4980844;27;98426;-64
2023/11/15 11:38:42;;;;;;;;;;;;;;;17.87;54.61;100207.81;4964619;27;98306;-64
2023/11/15 11:41:10;;;;;;;;;;;;;;;17.96;54.74;100212.47;4977008;27;98153;-64
2023/11/15 11:43:37;;;;;;;;;;;;;;;17.90;54.64;100215.34;4961585;27;97954;-63
2023/11/15 11:46:15;;;;;;;;;;;;;;;17.86;54.72;100222.59;4966959;27;98205;-64
2023/11/15 11:48:42;;;;;;;;;;;;;;;17.93;54.83;100222.09;4967217;27;98248;-68
2023/11/15 11:51:09;;;;;;;;;;;;;;;17.94;54.53;100215.53;4979546;27;98530;-63
2023/11/15 11:53:39;;;;;;;;;;;;;;;17.94;54.67;100220.19;4964646;27;98031;-68
2023/11/15 11:56:11;;;;;;;;;;;;;;;17.88;54.73;100217.63;4967483;27;98361;-68
2023/11/15 11:58:39;;;;;;;;;;;;;;;17.88;54.75;100220.34;4973188;27;100558;-68
2023/11/15 12:01:06;;;;;;;;;;;;;;;17.87;54.80;100218.72;4968110;27;99498;-68
2023/11/15 12:03:35;;;;;;;;;;;;;;;17.88;54.81;100224.97;4964467;27;98931;-68
2023/11/15 12:06:09;;;;;;;;;;;;;;;17.85;54.82;100234.63;4967318;27;98562;-63
2023/11/15 12:08:40;;;;;;;;;;;;;;;17.81;54.83;100228.22;4982231;27;98195;-63
2023/11/15 12:11:07;;;;;;;;;;;;;;;17.78;54.85;100233.50;4958780;27;98385;-68
2023/11/15 12:13:48;;;;;;;;;;;;;;;17.79;55.01;100238.63;4958709;27;100206;-64
2023/11/15 12:16:17;;;;;;;;;;;;;;;17.76;54.97;100233.78;4979499;27;99788;-64
2023/11/15 12:18:55;;;;;;;;;;;;;;;17.85;54.83;100239.28;4978644;27;98446;-68
2023/11/15 12:21:25;;;;;;;;;;;;;;;17.64;55.35;100230.88;4962233;27;98418;-64
2023/11/15 12:23:53;;;;;;;;;;;;;;;17.50;55.54;100230.25;4978236;27;98182;-64
2023/11/15 12:26:19;;;;;;;;;;;;;;;17.44;55.40;100235.03;4974332;27;98078;-68
2023/11/15 12:28:45;;;;;;;;;;;;;;;17.38;55.41;100236.31;4978109;27;99976;-68
2023/11/15 12:31:11;;;;;;;;;;;;;;;17.28;55.33;100240.13;4964643;27;98161;-68
2023/11/15 12:33:37;;;;;;;;;;;;;;;17.16;55.63;100232.56;4974872;27;98568;-68
2023/11/15 12:36:06;;;;;;;;;;;;;;;17.06;55.70;100240.25;4979152;27;98124;-65
2023/11/15 12:38:32;;;;;;;;;;;;;;;16.97;55.84;100251.09;4973481;27;98361;-68
2023/11/15 12:41:05;;;;;;;;;;;;;;;16.85;55.66;100250.91;4977583;27;98660;-64
2023/11/15 12:43:31;;;;;;;;;;;;;;;16.77;55.74;100246.22;4990708;27;98220;-64